WetterOnline ( https://www.wetteronline.de )

Wetter aktuell Fehrbellin

Aktuelles Wetter: Neuruppin - Alt Ruppin (50m)

6-stündlich | Neueste Meldungen
Ortszeit Temperatur Wetter
So, 09.05. 20:00 23.5° C wolkenlos
So, 09.05. 14:00 24.6° C wolkig
So, 09.05. 8:00 14.1° C wolkenlos
So, 09.05. 2:00 10.5° C bedeckt
Sa, 08.05. 20:00 12.4° C bedeckt
Sa, 08.05. 14:00 12.1° C bewölkt
Sa, 08.05. 8:00 5.7° C wolkenlos
Sa, 08.05. 2:00 5.0° C wolkenlos
Ortszeit Temperatur Wetter
Mo, 10.05. 1:30 17.4° C leicht bewölkt
Mo, 10.05. 1:20 17.4° C leicht bewölkt
Mo, 10.05. 1:10 17.6° C fast wolkenlos
Mo, 10.05. 1:00 18.5° C leicht bewölkt
Mo, 10.05. 0:50 18.5° C leicht bewölkt
Mo, 10.05. 0:40 18.8° C leicht bewölkt
Mo, 10.05. 0:30 18.4° C wolkig
Mo, 10.05. 0:00 18.5° C wolkig
Ortszeit Relative Feuchte Sichtweite
So, 09.05. 20:00 40% 65 km
So, 09.05. 14:00 42% 65 km
So, 09.05. 8:00 58% 65 km
So, 09.05. 2:00 58% 50 km
Sa, 08.05. 20:00 49% 60 km
Sa, 08.05. 14:00 50% >70 km
Sa, 08.05. 8:00 78% 40 km
Sa, 08.05. 2:00 79% 45 km
Ortszeit Relative Feuchte Sichtweite
Mo, 10.05. 1:30 60% >70 km
Mo, 10.05. 1:20 60% -
Mo, 10.05. 1:10 60% -
Mo, 10.05. 1:00 57% 65 km
Mo, 10.05. 0:50 57% -
Mo, 10.05. 0:40 55% -
Mo, 10.05. 0:30 57% 60 km
Mo, 10.05. 0:00 58% 50 km
Ortszeit Niederschlagsmenge Niederschlagsart
So, 09.05. 20:00 0.0 l/m2 in 12 Std. -
So, 09.05. 14:00 0.0 l/m2 in 6 Std. -
So, 09.05. 8:00 0.1 l/m2 in 12 Std. Regen
So, 09.05. 2:00 0.1 l/m2 in 6 Std. Regen
Sa, 08.05. 20:00 0.0 l/m2 in 12 Std. -
Sa, 08.05. 14:00 0.0 l/m2 in 6 Std. -
Sa, 08.05. 8:00 0.0 l/m2 in 12 Std. -
Sa, 08.05. 2:00 0.0 l/m2 in 6 Std. -
Ortszeit Niederschlagsmenge Niederschlagsart
Mo, 10.05. 1:30 0.0 l/m2 in 1 Std. -
Mo, 10.05. 1:20 keine Meldung -
Mo, 10.05. 1:10 keine Meldung -
Mo, 10.05. 1:00 0.0 l/m2 in 1 Std. -
Mo, 10.05. 0:50 keine Meldung -
Mo, 10.05. 0:40 keine Meldung -
Mo, 10.05. 0:30 0.0 l/m2 in 1 Std. -
Mo, 10.05. 0:00 0.0 l/m2 in 1 Std. -
Ortszeit Stärke Spitze Richtung
km/h Bft. km/h Grad Sektor
So, 09.05. 20:00 7 2 36 140° SO
So, 09.05. 14:00 17 3 37 210° SW
So, 09.05. 8:00 11 2 22 180° S
So, 09.05. 2:00 9 2 20 150° SO
Sa, 08.05. 20:00 6 1 28 130° SO
Sa, 08.05. 14:00 15 3 26 230° SW
Sa, 08.05. 8:00 7 2 18 230° SW
Sa, 08.05. 2:00 7 2 22 260° W
Ortszeit Stärke Spitze Richtung
km/h Bft. km/h Grad Sektor
Mo, 10.05. 1:30 9 2 20 150° SO
Mo, 10.05. 1:20 9 2 - 150° SO
Mo, 10.05. 1:10 11 2 - 160° S
Mo, 10.05. 1:00 14 3 25 160° S
Mo, 10.05. 0:50 14 3 - 160° S
Mo, 10.05. 0:40 13 3 - 160° S
Mo, 10.05. 0:30 11 2 22 150° SO
Mo, 10.05. 0:00 13 3 26 160° S
Ortszeit Untergrenze Bedeckung Gattung
total tief tief mittel hoch
So, 09.05. 20:00 - 0/8 0/8 - - -
So, 09.05. 14:00 8100 m 7/8 0/8 - - -
So, 09.05. 8:00 - 0/8 0/8 - - -
So, 09.05. 2:00 1500 m 8/8 8/8 - - -
Sa, 08.05. 20:00 2700 m 8/8 8/8 - - -
Sa, 08.05. 14:00 1320 m 7/8 7/8 - - -
Sa, 08.05. 8:00 - 0/8 0/8 - - -
Sa, 08.05. 2:00 - 0/8 0/8 - - -
Ortszeit Bedeckungsgrad in Achtel und Wolkenuntergrenze
Mo, 10.05. 1:30 3(9000m) 5(9000m) 5(10500m)
Mo, 10.05. 1:20 3(9000m) 5(9000m) 5(10500m)
Mo, 10.05. 1:10 2(9000m)
Mo, 10.05. 1:00 2(9000m) 3(10500m)
Mo, 10.05. 0:50 2(9000m) 2(9000m) 3(10500m)
Mo, 10.05. 0:40 2(9000m) 4(10500m)
Mo, 10.05. 0:30 6(9000m) 8(10500m)
Mo, 10.05. 0:00 7(9000m) 7(10500m)
Ortszeit Luftdruck NN (hPa) Tendenz (hPa in 3 Std.)
So, 09.05. 20:00 1006 - 1,4
So, 09.05. 14:00 1009 - 1,5
So, 09.05. 8:00 1011 - 0,2
So, 09.05. 2:00 1013 - 1,3
Sa, 08.05. 20:00 1015 - 1,2
Sa, 08.05. 14:00 1018 - 0,9
Sa, 08.05. 8:00 1018 + 1,2
Sa, 08.05. 2:00 1017 + 1,2
Ortszeit Luftdruck NN (hPa) Tendenz (hPa in 3 Std.)
Mo, 10.05. 1:30 1006 - 0,6
Mo, 10.05. 1:20 1006 keine Meldung
Mo, 10.05. 1:10 1006 keine Meldung
Mo, 10.05. 1:00 1006 - 0,6
Mo, 10.05. 0:50 1006 keine Meldung
Mo, 10.05. 0:40 1006 keine Meldung
Mo, 10.05. 0:30 1006 - 0,6
Mo, 10.05. 0:00 1006 - 0,3
Ortszeit Schneehöhe (cm)
So, 09.05. 20:00 0
So, 09.05. 14:00 0
So, 09.05. 8:00 0
So, 09.05. 2:00 0
Sa, 08.05. 20:00 0
Sa, 08.05. 14:00 0
Sa, 08.05. 8:00 0
Sa, 08.05. 2:00 0
Ortszeit Schneehöhe (cm)
Mo, 10.05. 1:30 0
Mo, 10.05. 1:20 0
Mo, 10.05. 1:10 0
Mo, 10.05. 1:00 0
Mo, 10.05. 0:50 0
Mo, 10.05. 0:40 0
Mo, 10.05. 0:30 0
Mo, 10.05. 0:00 0
Link zu dieser Seite / Seite empfehlen

Das Wetter in ...